Time;durP1;ratioP1;P1;durP2;ratioP2;P2;SDS_P1;SDS_P2;PMS_P1;PMS_P2;Temp;Humidity;BMP_temperature;BMP_pressure;BME280_temperature;BME280_humidity;BME280_pressure;Samples;Min_cycle;Max_cycle;Signal;HPM_P1;HPM_P2
2024/02/03 00:00:17;;;;;;;16.45;6.18;;;10.30;99.90;;;;;;5142009;27;20100;-63
2024/02/03 00:02:43;;;;;;;14.00;5.95;;;10.30;99.90;;;;;;5134145;27;20035;-63
2024/02/03 00:05:09;;;;;;;19.77;6.40;;;10.30;99.90;;;;;;5137271;27;20035;-63
2024/02/03 00:07:35;;;;;;;12.98;6.72;;;10.30;99.90;;;;;;5133824;27;20391;-64
2024/02/03 00:10:00;;;;;;;18.50;6.38;;;10.30;99.90;;;;;;5120861;27;20799;-63
2024/02/03 00:12:28;;;;;;;15.02;6.57;;;10.30;99.90;;;;;;5132757;27;20111;-62
2024/02/03 00:14:55;;;;;;;20.30;7.55;;;10.20;99.90;;;;;;5137301;27;20085;-63
2024/02/03 00:17:21;;;;;;;22.10;7.55;;;10.20;99.90;;;;;;5128791;27;20047;-64
2024/02/03 00:19:47;;;;;;;18.63;6.40;;;10.20;99.90;;;;;;5135240;27;20049;-64
2024/02/03 00:22:13;;;;;;;18.42;6.45;;;10.20;99.90;;;;;;5141727;27;20034;-64
2024/02/03 00:24:39;;;;;;;17.00;6.22;;;10.20;99.90;;;;;;5141367;27;20112;-63
2024/02/03 00:27:05;;;;;;;18.17;8.15;;;10.20;99.90;;;;;;5122666;27;20042;-63
2024/02/03 00:29:31;;;;;;;17.98;7.15;;;10.20;99.90;;;;;;5138020;27;20034;-64
2024/02/03 00:31:57;;;;;;;18.52;6.15;;;10.20;99.90;;;;;;5118273;27;20035;-64
2024/02/03 00:34:23;;;;;;;21.75;6.40;;;10.20;99.90;;;;;;5134100;27;20031;-62
2024/02/03 00:36:48;;;;;;;16.52;6.20;;;10.20;99.90;;;;;;5143563;27;20035;-62
2024/02/03 00:39:14;;;;;;;17.80;7.25;;;10.20;99.90;;;;;;5134551;27;20042;-62
2024/02/03 00:41:40;;;;;;;17.77;5.28;;;10.30;99.90;;;;;;5142435;27;20042;-62
2024/02/03 00:44:06;;;;;;;12.52;5.43;;;10.30;99.90;;;;;;5139963;27;20046;-63
2024/02/03 00:46:32;;;;;;;11.50;6.13;;;10.30;99.90;;;;;;5141604;27;20054;-63
2024/02/03 00:48:58;;;;;;;18.40;5.32;;;10.20;99.90;;;;;;5142865;27;20087;-63
2024/02/03 00:51:24;;;;;;;14.07;5.78;;;10.30;99.90;;;;;;5141914;27;20386;-62
2024/02/03 00:53:49;;;;;;;11.02;5.43;;;10.20;99.90;;;;;;5138603;27;20446;-62
2024/02/03 00:56:15;;;;;;;14.80;4.07;;;10.30;99.90;;;;;;5141962;27;20122;-62
2024/02/03 00:58:41;;;;;;;9.95;4.57;;;10.30;99.90;;;;;;5140902;27;20121;-63
2024/02/03 01:01:07;;;;;;;12.02;4.10;;;10.30;99.90;;;;;;5144706;27;20035;-63
2024/02/03 01:03:33;;;;;;;11.82;4.70;;;10.30;99.90;;;;;;5140438;27;20418;-63
2024/02/03 01:05:59;;;;;;;7.25;4.05;;;10.30;99.90;;;;;;5133282;27;20126;-63
2024/02/03 01:08:25;;;;;;;17.52;4.53;;;10.30;99.90;;;;;;5147380;27;20049;-63
2024/02/03 01:10:51;;;;;;;12.77;3.80;;;10.30;99.90;;;;;;5146344;27;20042;-63
2024/02/03 01:13:17;;;;;;;12.23;4.70;;;10.30;99.90;;;;;;5127599;27;20149;-62
2024/02/03 01:15:42;;;;;;;9.23;3.47;;;10.40;99.90;;;;;;5143538;27;20031;-62
2024/02/03 01:18:08;;;;;;;15.25;3.78;;;10.40;99.90;;;;;;5136868;27;20034;-62
2024/02/03 01:20:34;;;;;;;11.98;4.03;;;10.40;99.90;;;;;;5114852;27;20061;-63
2024/02/03 01:23:00;;;;;;;12.98;4.07;;;10.40;99.90;;;;;;5133260;27;20038;-63
2024/02/03 01:25:26;;;;;;;11.57;3.78;;;10.40;99.90;;;;;;5125829;27;20200;-62
2024/02/03 01:27:52;;;;;;;8.02;3.03;;;10.40;99.90;;;;;;5143254;27;20034;-63
2024/02/03 01:30:17;;;;;;;12.23;3.58;;;10.40;99.90;;;;;;5137368;27;20115;-62
2024/02/03 01:32:43;;;;;;;11.57;3.40;;;10.50;99.90;;;;;;5143009;27;20035;-63
2024/02/03 01:35:09;;;;;;;10.18;3.53;;;10.50;99.90;;;;;;5134802;27;20126;-63
2024/02/03 01:37:36;;;;;;;9.95;2.97;;;10.50;99.90;;;;;;5143391;27;20555;-63
2024/02/03 01:40:03;;;;;;;11.73;3.25;;;10.40;99.90;;;;;;5138296;27;20142;-63
2024/02/03 01:42:29;;;;;;;5.88;3.13;;;10.40;99.90;;;;;;5138176;27;20050;-64
2024/02/03 01:44:55;;;;;;;8.85;3.25;;;10.50;99.90;;;;;;5135795;27;20507;-64
2024/02/03 01:47:21;;;;;;;11.55;3.08;;;10.50;99.90;;;;;;5146245;27;20042;-63
2024/02/03 01:49:49;;;;;;;9.88;2.67;;;10.50;99.90;;;;;;5146503;27;20445;-63
2024/02/03 01:52:15;;;;;;;9.10;2.42;;;10.50;99.90;;;;;;5137181;27;20070;-63
2024/02/03 01:54:44;;;;;;;9.30;3.33;;;10.50;99.90;;;;;;5138867;27;20047;-63
2024/02/03 01:57:10;;;;;;;10.02;3.05;;;10.50;99.90;;;;;;5140462;27;20042;-64
2024/02/03 01:59:36;;;;;;;12.23;3.72;;;10.50;99.90;;;;;;5139931;27;20438;-63
2024/02/03 02:02:02;;;;;;;13.88;3.60;;;10.50;99.90;;;;;;5133699;27;20039;-63
2024/02/03 02:04:29;;;;;;;11.57;3.30;;;10.60;99.90;;;;;;5138961;27;20529;-63
2024/02/03 02:06:56;;;;;;;13.07;3.03;;;10.60;99.90;;;;;;5140013;27;20684;-63
2024/02/03 02:09:23;;;;;;;9.25;2.85;;;10.60;99.90;;;;;;5133602;27;20066;-64
2024/02/03 02:11:51;;;;;;;12.35;3.55;;;10.60;99.90;;;;;;5142235;27;20447;-64
2024/02/03 02:14:18;;;;;;;10.38;2.90;;;10.60;99.90;;;;;;5144718;27;20038;-62
2024/02/03 02:16:45;;;;;;;8.90;3.00;;;10.60;99.90;;;;;;5144997;27;20054;-62
2024/02/03 02:19:11;;;;;;;12.20;2.97;;;10.60;99.90;;;;;;5145194;27;20403;-63
2024/02/03 02:21:37;;;;;;;8.00;3.08;;;10.60;99.90;;;;;;5144293;27;20035;-63
2024/02/03 02:24:03;;;;;;;10.77;3.15;;;10.70;99.90;;;;;;5141441;27;20042;-62
2024/02/03 02:26:29;;;;;;;10.13;3.42;;;10.60;99.90;;;;;;5137429;27;20110;-62
2024/02/03 02:28:54;;;;;;;8.77;3.20;;;10.70;99.90;;;;;;5138262;27;20100;-63
2024/02/03 02:31:20;;;;;;;11.07;3.85;;;10.70;99.90;;;;;;5143645;27;20046;-62
2024/02/03 02:33:46;;;;;;;11.95;3.92;;;10.70;99.90;;;;;;5141520;27;20560;-63
2024/02/03 02:36:12;;;;;;;8.68;3.05;;;10.70;99.90;;;;;;5123823;27;20180;-63
2024/02/03 02:38:38;;;;;;;13.75;3.20;;;10.60;99.90;;;;;;5122132;27;20197;-63
2024/02/03 02:41:04;;;;;;;13.65;3.20;;;10.70;99.90;;;;;;5141695;27;20034;-63
2024/02/03 02:43:29;;;;;;;6.32;3.30;;;10.70;99.90;;;;;;5142769;27;20125;-64
2024/02/03 02:45:56;;;;;;;11.32;3.70;;;10.70;99.90;;;;;;5143321;27;20581;-62
2024/02/03 02:48:22;;;;;;;8.95;3.00;;;10.60;99.90;;;;;;5141962;27;20043;-63
2024/02/03 02:50:48;;;;;;;7.22;3.30;;;10.70;99.90;;;;;;5137062;27;20123;-63
2024/02/03 02:53:14;;;;;;;14.50;3.80;;;10.70;99.90;;;;;;5144716;27;20048;-62
2024/02/03 02:55:40;;;;;;;11.65;3.30;;;10.70;99.90;;;;;;5141969;27;20080;-63
2024/02/03 02:58:06;;;;;;;12.38;3.58;;;10.70;99.90;;;;;;5143682;27;20048;-63
2024/02/03 03:00:32;;;;;;;11.45;3.67;;;10.70;99.90;;;;;;5117747;27;20495;-63
2024/02/03 03:02:58;;;;;;;8.82;3.00;;;10.80;99.90;;;;;;5143609;27;20064;-62
2024/02/03 03:05:23;;;;;;;12.05;3.90;;;10.70;99.90;;;;;;5138528;27;20042;-63
2024/02/03 03:07:50;;;;;;;10.32;3.40;;;10.70;99.90;;;;;;5142381;27;20038;-62
2024/02/03 03:10:16;;;;;;;13.60;4.05;;;10.80;99.90;;;;;;5140905;27;20031;-63
2024/02/03 03:12:42;;;;;;;8.85;3.72;;;10.80;99.90;;;;;;5138775;27;20511;-63
2024/02/03 03:15:09;;;;;;;13.43;3.53;;;10.70;99.90;;;;;;5137489;27;20039;-62
2024/02/03 03:17:35;;;;;;;10.35;3.67;;;10.70;99.90;;;;;;5130942;27;20073;-62
2024/02/03 03:20:01;;;;;;;12.93;4.28;;;10.70;99.90;;;;;;5136416;27;20081;-62
2024/02/03 03:22:27;;;;;;;10.45;4.25;;;10.60;99.90;;;;;;5139318;27;20066;-62
2024/02/03 03:24:53;;;;;;;10.93;3.97;;;10.70;99.90;;;;;;5140053;27;20530;-61
2024/02/03 03:27:19;;;;;;;9.65;3.85;;;10.60;99.90;;;;;;5141595;27;20065;-63
2024/02/03 03:29:48;;;;;;;13.23;3.53;;;10.60;99.90;;;;;;5140355;27;20039;-63
2024/02/03 03:32:14;;;;;;;14.02;4.70;;;10.50;99.90;;;;;;5138521;27;20529;-62
2024/02/03 03:34:43;;;;;;;12.68;3.75;;;10.50;99.90;;;;;;5140375;27;20043;-63
2024/02/03 03:37:09;;;;;;;12.18;3.83;;;10.50;99.90;;;;;;5141720;27;20054;-63
2024/02/03 03:39:34;;;;;;;10.60;3.30;;;10.40;99.90;;;;;;5133664;27;20177;-63
2024/02/03 03:42:00;;;;;;;8.02;3.33;;;10.40;99.90;;;;;;5135937;27;20130;-62
2024/02/03 03:44:26;;;;;;;10.10;2.85;;;10.30;99.90;;;;;;5139789;27;20058;-63
2024/02/03 03:46:52;;;;;;;15.02;3.55;;;10.30;99.90;;;;;;5136125;27;20042;-62
2024/02/03 03:49:18;;;;;;;14.32;3.90;;;10.30;99.90;;;;;;5130578;27;20035;-62
2024/02/03 03:51:45;;;;;;;11.02;3.33;;;10.30;99.90;;;;;;5139136;27;20129;-62
2024/02/03 03:54:11;;;;;;;11.25;4.00;;;10.30;99.90;;;;;;5140277;27;20038;-62
2024/02/03 03:56:37;;;;;;;9.55;3.10;;;10.30;99.90;;;;;;5141175;27;20034;-65
2024/02/03 03:59:03;;;;;;;15.23;4.18;;;10.20;99.90;;;;;;5141271;27;20494;-63
2024/02/03 04:01:28;;;;;;;9.32;3.13;;;10.30;99.90;;;;;;5142957;27;20432;-63
2024/02/03 04:03:54;;;;;;;9.68;3.08;;;10.20;99.90;;;;;;5138708;27;20402;-63
2024/02/03 04:06:20;;;;;;;13.90;3.38;;;10.20;99.90;;;;;;5136933;27;20432;-62
2024/02/03 04:08:45;;;;;;;9.77;3.20;;;10.30;99.90;;;;;;5133957;27;20569;-62
2024/02/03 04:11:11;;;;;;;10.30;3.03;;;10.20;99.90;;;;;;5140820;27;20462;-62
2024/02/03 04:13:39;;;;;;;11.00;3.78;;;10.40;99.90;;;;;;5141137;27;20030;-63
2024/02/03 04:16:05;;;;;;;13.05;3.45;;;10.30;99.90;;;;;;5120182;27;20070;-62
2024/02/03 04:18:31;;;;;;;13.23;3.65;;;10.30;99.90;;;;;;5132492;27;20039;-62
2024/02/03 04:20:57;;;;;;;12.77;3.88;;;10.30;99.90;;;;;;5131278;27;20052;-64
2024/02/03 04:23:22;;;;;;;8.05;3.83;;;10.30;99.90;;;;;;5137073;27;20423;-62
2024/02/03 04:25:48;;;;;;;15.55;4.00;;;10.20;99.90;;;;;;5131286;27;20113;-63
2024/02/03 04:28:14;;;;;;;9.30;3.78;;;10.30;99.90;;;;;;5141480;27;20367;-62
2024/02/03 04:30:40;;;;;;;14.43;3.53;;;10.30;99.90;;;;;;5144568;27;20038;-63
2024/02/03 04:33:06;;;;;;;11.02;3.40;;;10.40;99.90;;;;;;5135263;27;20391;-63
2024/02/03 04:35:33;;;;;;;10.70;3.25;;;10.40;99.90;;;;;;5140618;27;20556;-63
2024/02/03 04:38:02;;;;;;;15.18;4.10;;;10.40;99.90;;;;;;5138861;27;20046;-62
2024/02/03 04:40:28;;;;;;;12.60;3.55;;;10.40;99.90;;;;;;5139972;27;20432;-62
2024/02/03 04:42:54;;;;;;;12.32;3.70;;;10.40;99.90;;;;;;5131294;27;20462;-62
2024/02/03 04:45:20;;;;;;;8.90;3.60;;;10.40;99.90;;;;;;5130969;27;20031;-62
2024/02/03 04:47:47;;;;;;;7.07;2.97;;;10.40;99.90;;;;;;5138064;27;20106;-63
2024/02/03 04:50:13;;;;;;;12.50;3.50;;;10.30;99.90;;;;;;5133443;27;20047;-63
2024/02/03 04:52:39;;;;;;;12.90;4.13;;;10.30;99.90;;;;;;5141097;27;20122;-64
2024/02/03 04:55:05;;;;;;;16.35;3.42;;;10.20;99.90;;;;;;5135157;27;20035;-64
2024/02/03 04:57:31;;;;;;;17.40;4.55;;;10.20;99.90;;;;;;5139152;27;20043;-63
2024/02/03 04:59:57;;;;;;;13.02;3.83;;;10.30;99.90;;;;;;5139409;27;20041;-63
2024/02/03 05:02:22;;;;;;;12.25;3.40;;;10.20;99.90;;;;;;5136482;27;20410;-63
2024/02/03 05:04:48;;;;;;;12.95;3.60;;;10.20;99.90;;;;;;5132198;27;20050;-62
2024/02/03 05:07:14;;;;;;;12.38;3.85;;;10.10;99.90;;;;;;5138703;27;20039;-63
2024/02/03 05:09:39;;;;;;;14.45;3.00;;;10.10;99.90;;;;;;5137166;27;20039;-63
2024/02/03 05:12:06;;;;;;;13.60;3.60;;;10.10;99.90;;;;;;5140598;27;20111;-62
2024/02/03 05:14:32;;;;;;;12.95;4.00;;;10.00;99.90;;;;;;5141792;27;20114;-62
2024/02/03 05:16:59;;;;;;;10.40;3.78;;;10.10;99.90;;;;;;5135471;27;20038;-63
2024/02/03 05:19:26;;;;;;;13.40;4.45;;;10.10;99.90;;;;;;5126866;27;20035;-62
2024/02/03 05:21:52;;;;;;;12.13;3.75;;;10.00;99.90;;;;;;5138372;27;20146;-63
2024/02/03 05:24:17;;;;;;;14.77;4.10;;;10.10;99.90;;;;;;5140709;27;20121;-63
2024/02/03 05:26:43;;;;;;;14.95;3.88;;;10.10;99.90;;;;;;5140484;27;20533;-63
2024/02/03 05:29:09;;;;;;;16.02;3.88;;;10.20;99.90;;;;;;5143924;27;20041;-63
2024/02/03 05:31:35;;;;;;;13.82;4.50;;;10.20;99.90;;;;;;5141010;27;20042;-62
2024/02/03 05:34:00;;;;;;;15.98;3.97;;;10.20;99.90;;;;;;5136550;27;20038;-63
2024/02/03 05:36:26;;;;;;;13.90;4.80;;;10.30;99.90;;;;;;5141551;27;20510;-63
2024/02/03 05:38:52;;;;;;;13.95;4.15;;;10.20;99.90;;;;;;5136370;27;20062;-62
2024/02/03 05:41:18;;;;;;;11.23;4.32;;;10.10;99.90;;;;;;5139974;27;20546;-63
2024/02/03 05:43:43;;;;;;;14.57;4.47;;;10.10;99.90;;;;;;5114424;27;20070;-63
2024/02/03 05:46:09;;;;;;;13.18;4.25;;;10.10;99.90;;;;;;5135215;27;20121;-63
2024/02/03 05:48:35;;;;;;;14.77;4.35;;;10.10;99.90;;;;;;5136552;27;20294;-62
2024/02/03 05:51:00;;;;;;;11.68;4.72;;;10.10;99.90;;;;;;5138839;27;20283;-62
2024/02/03 05:53:26;;;;;;;18.27;5.13;;;10.00;99.90;;;;;;5146144;27;20042;-63
2024/02/03 05:55:52;;;;;;;14.90;4.47;;;10.10;99.90;;;;;;5134530;27;20046;-62
2024/02/03 05:58:18;;;;;;;14.98;4.22;;;10.00;99.90;;;;;;5137105;27;20027;-62
2024/02/03 06:00:43;;;;;;;9.65;3.65;;;10.00;99.90;;;;;;5142428;27;20034;-63
2024/02/03 06:03:09;;;;;;;13.00;4.38;;;10.00;99.90;;;;;;5144448;27;20035;-63
2024/02/03 06:05:35;;;;;;;14.70;4.65;;;10.00;99.90;;;;;;5140651;27;20038;-62
2024/02/03 06:08:00;;;;;;;8.20;3.38;;;9.90;99.90;;;;;;5133204;27;20043;-63
2024/02/03 06:10:26;;;;;;;14.82;3.90;;;9.80;99.90;;;;;;5140904;27;20102;-63
2024/02/03 06:12:52;;;;;;;14.20;4.20;;;9.80;99.90;;;;;;5120556;27;20046;-63
2024/02/03 06:15:18;;;;;;;10.27;3.90;;;9.90;99.90;;;;;;5131931;27;20121;-63
2024/02/03 06:17:44;;;;;;;13.95;4.45;;;9.90;99.90;;;;;;5137185;27;20491;-63
2024/02/03 06:20:10;;;;;;;14.00;4.28;;;9.90;99.90;;;;;;5141327;27;20031;-63
2024/02/03 06:22:36;;;;;;;12.98;3.45;;;9.90;99.90;;;;;;5145963;27;20081;-63
2024/02/03 06:25:01;;;;;;;14.20;4.68;;;9.90;99.90;;;;;;5143910;27;20153;-62
2024/02/03 06:27:27;;;;;;;13.20;4.30;;;9.90;99.90;;;;;;5144564;27;20048;-63
2024/02/03 06:29:53;;;;;;;16.98;4.18;;;9.90;99.90;;;;;;5144981;27;20117;-63
2024/02/03 06:32:18;;;;;;;14.50;4.00;;;9.90;99.90;;;;;;5139135;27;20499;-63
2024/02/03 06:34:44;;;;;;;18.02;3.47;;;9.90;99.90;;;;;;5139900;27;20038;-63
2024/02/03 06:37:10;;;;;;;10.23;3.97;;;9.90;99.90;;;;;;5137711;27;20027;-63
2024/02/03 06:39:36;;;;;;;11.35;4.03;;;9.90;99.90;;;;;;5136767;27;20042;-63
2024/02/03 06:42:02;;;;;;;14.32;3.65;;;10.00;99.90;;;;;;5137021;27;20507;-62
2024/02/03 06:44:27;;;;;;;11.07;4.07;;;10.00;99.90;;;;;;5135813;27;20476;-62
2024/02/03 06:46:53;;;;;;;10.07;4.05;;;10.10;99.90;;;;;;5142829;27;20627;-62
2024/02/03 06:49:19;;;;;;;10.95;3.85;;;10.10;99.90;;;;;;5143251;27;20035;-62
2024/02/03 06:51:45;;;;;;;11.68;3.75;;;10.10;99.90;;;;;;5141124;27;20134;-63
2024/02/03 06:54:10;;;;;;;9.32;3.38;;;10.10;99.90;;;;;;5142562;27;20392;-63
2024/02/03 06:56:36;;;;;;;10.27;4.15;;;10.10;99.90;;;;;;5143027;27;20035;-62
2024/02/03 06:59:02;;;;;;;11.55;4.00;;;10.10;99.90;;;;;;5142522;27;20031;-63
2024/02/03 07:01:28;;;;;;;8.52;3.42;;;10.20;99.90;;;;;;5143660;27;20042;-62
2024/02/03 07:03:54;;;;;;;17.15;4.30;;;10.30;99.90;;;;;;5138860;27;20046;-63
2024/02/03 07:06:19;;;;;;;13.07;4.13;;;10.20;99.90;;;;;;5139885;27;20042;-63
2024/02/03 07:08:45;;;;;;;13.43;3.42;;;10.20;99.90;;;;;;5141491;27;20509;-63
2024/02/03 07:11:11;;;;;;;14.90;3.88;;;10.30;99.90;;;;;;5140027;27;20043;-63
2024/02/03 07:13:38;;;;;;;13.90;4.88;;;10.20;99.90;;;;;;5141325;27;20050;-62
2024/02/03 07:16:05;;;;;;;9.57;3.90;;;10.30;99.90;;;;;;5138468;27;20082;-63
2024/02/03 07:18:30;;;;;;;12.25;3.40;;;10.30;99.90;;;;;;5142123;27;20026;-62
2024/02/03 07:20:56;;;;;;;11.23;4.07;;;10.20;99.90;;;;;;5140830;27;20578;-62
2024/02/03 07:23:22;;;;;;;12.88;4.03;;;10.30;99.90;;;;;;5142224;27;20041;-63
2024/02/03 07:25:48;;;;;;;10.68;3.95;;;10.30;99.90;;;;;;5121836;27;20035;-62
2024/02/03 07:28:14;;;;;;;11.43;3.72;;;10.30;99.90;;;;;;5140208;27;20031;-63
2024/02/03 07:30:40;;;;;;;9.27;4.35;;;10.30;99.90;;;;;;5141080;27;20529;-62
2024/02/03 07:33:07;;;;;;;12.95;3.80;;;10.30;99.90;;;;;;5139382;27;20074;-61
2024/02/03 07:35:34;;;;;;;14.38;4.30;;;10.40;99.90;;;;;;5141654;27;20440;-62
2024/02/03 07:38:00;;;;;;;14.63;5.22;;;10.40;99.90;;;;;;5139840;27;20026;-61
2024/02/03 07:40:25;;;;;;;15.95;4.57;;;10.40;99.90;;;;;;5139849;27;20045;-61
2024/02/03 07:42:51;;;;;;;15.13;4.13;;;10.40;99.90;;;;;;5138217;27;20092;-62
2024/02/03 07:45:17;;;;;;;13.13;4.53;;;10.30;99.90;;;;;;5139038;27;20074;-62
2024/02/03 07:47:43;;;;;;;12.40;4.03;;;10.30;99.90;;;;;;5142397;27;20082;-62
2024/02/03 07:50:09;;;;;;;13.20;4.15;;;10.40;99.90;;;;;;5139920;27;20535;-62
2024/02/03 07:52:35;;;;;;;12.43;3.70;;;10.30;99.90;;;;;;5140642;27;20042;-62
2024/02/03 07:55:03;;;;;;;15.15;3.90;;;10.30;99.90;;;;;;5139982;27;20070;-61
2024/02/03 07:57:29;;;;;;;14.80;4.35;;;10.30;99.90;;;;;;5141907;27;20069;-62
2024/02/03 07:59:55;;;;;;;17.13;4.53;;;10.30;99.90;;;;;;5139702;27;20027;-62
2024/02/03 08:02:21;;;;;;;12.68;4.80;;;10.30;99.90;;;;;;5141521;27;20039;-62
2024/02/03 08:04:46;;;;;;;14.65;4.20;;;10.30;99.90;;;;;;5139756;27;20046;-61
2024/02/03 08:07:12;;;;;;;15.15;3.92;;;10.40;99.90;;;;;;5138121;27;20034;-62
2024/02/03 08:09:38;;;;;;;12.10;3.88;;;10.30;99.90;;;;;;5117585;27;20038;-62
2024/02/03 08:12:04;;;;;;;13.45;4.43;;;10.30;99.90;;;;;;5140680;27;20046;-62
2024/02/03 08:14:30;;;;;;;11.93;3.90;;;10.40;99.90;;;;;;5141528;27;20050;-62
2024/02/03 08:16:56;;;;;;;15.38;3.53;;;10.30;99.90;;;;;;5138674;27;20042;-62
2024/02/03 08:19:22;;;;;;;14.65;4.55;;;10.40;99.90;;;;;;5140990;27;20443;-61
2024/02/03 08:21:48;;;;;;;16.90;3.88;;;10.40;99.90;;;;;;5139295;27;20039;-62
2024/02/03 08:24:14;;;;;;;15.57;4.40;;;10.40;99.90;;;;;;5141568;27;20053;-61
2024/02/03 08:26:40;;;;;;;14.80;3.45;;;10.40;99.90;;;;;;5136630;27;20042;-62
2024/02/03 08:29:06;;;;;;;11.02;3.72;;;10.50;99.90;;;;;;5142213;27;20498;-62
2024/02/03 08:31:32;;;;;;;8.38;3.40;;;10.40;99.90;;;;;;5140417;27;20043;-61
2024/02/03 08:33:57;;;;;;;16.95;3.88;;;10.50;99.90;;;;;;5141962;27;20030;-62
2024/02/03 08:36:23;;;;;;;11.55;3.60;;;10.50;99.90;;;;;;5139492;27;20171;-63
2024/02/03 08:38:49;;;;;;;14.05;3.40;;;10.50;99.90;;;;;;5142265;27;20562;-62
2024/02/03 08:41:15;;;;;;;12.82;3.58;;;10.50;99.90;;;;;;5138877;27;20107;-62
2024/02/03 08:43:41;;;;;;;14.90;3.55;;;10.50;99.90;;;;;;5142213;27;20042;-63
2024/02/03 08:46:08;;;;;;;11.85;3.72;;;10.40;99.90;;;;;;5121699;27;20043;-62
2024/02/03 08:48:34;;;;;;;12.80;3.75;;;10.50;99.90;;;;;;5139807;27;20514;-62
2024/02/03 08:50:59;;;;;;;12.88;3.63;;;10.40;99.90;;;;;;5132811;27;20043;-62
2024/02/03 08:53:25;;;;;;;13.65;3.60;;;10.50;99.90;;;;;;5135500;27;20056;-62
2024/02/03 08:55:51;;;;;;;7.47;2.92;;;10.50;99.90;;;;;;5136049;27;20831;-62
2024/02/03 08:58:17;;;;;;;15.73;3.72;;;10.50;99.90;;;;;;5139286;27;20034;-61
2024/02/03 09:00:43;;;;;;;8.65;3.22;;;10.60;99.90;;;;;;5140865;27;20067;-62
2024/02/03 09:03:08;;;;;;;12.13;3.25;;;10.60;99.90;;;;;;5122586;27;20038;-62
2024/02/03 09:05:34;;;;;;;18.70;3.63;;;10.60;99.90;;;;;;5138825;27;20443;-62
2024/02/03 09:08:00;;;;;;;14.25;3.88;;;10.70;99.90;;;;;;5136321;27;20031;-62
2024/02/03 09:10:26;;;;;;;13.13;3.45;;;10.70;99.90;;;;;;5139101;27;20038;-62
2024/02/03 09:12:52;;;;;;;15.70;3.97;;;10.70;99.90;;;;;;5123646;27;20057;-62
2024/02/03 09:15:17;;;;;;;12.23;3.63;;;10.70;99.90;;;;;;5141937;27;20125;-62
2024/02/03 09:17:43;;;;;;;14.02;3.67;;;10.70;99.90;;;;;;5144103;27;20046;-62
2024/02/03 09:20:10;;;;;;;15.07;3.78;;;10.60;99.90;;;;;;5144096;27;20090;-62
2024/02/03 09:22:35;;;;;;;14.95;4.25;;;10.70;99.90;;;;;;5142277;27;20491;-62
2024/02/03 09:25:01;;;;;;;13.15;3.63;;;10.80;99.90;;;;;;5142819;27;20074;-62
2024/02/03 09:27:27;;;;;;;14.07;4.00;;;10.70;99.90;;;;;;5144151;27;20070;-62
2024/02/03 09:29:53;;;;;;;18.13;3.83;;;10.80;99.90;;;;;;5141509;27;20096;-62
2024/02/03 09:32:19;;;;;;;15.43;3.65;;;10.80;99.90;;;;;;5124417;27;20096;-62
2024/02/03 09:34:48;;;;;;;14.90;3.70;;;10.80;99.90;;;;;;5141312;27;20447;-64
2024/02/03 09:37:15;;;;;;;16.23;4.15;;;10.70;99.90;;;;;;5144017;27;20042;-63
2024/02/03 09:39:43;;;;;;;21.98;3.67;;;10.80;99.90;;;;;;5141335;27;20037;-62
2024/02/03 09:42:10;;;;;;;16.15;3.45;;;10.80;99.90;;;;;;5139009;27;20042;-63
2024/02/03 09:44:36;;;;;;;19.08;4.43;;;10.80;99.90;;;;;;5121004;27;20042;-62
2024/02/03 09:47:02;;;;;;;15.18;4.28;;;10.90;99.90;;;;;;5141780;27;20042;-62
2024/02/03 09:49:28;;;;;;;14.15;3.92;;;10.80;99.90;;;;;;5140050;27;20072;-63
2024/02/03 09:51:54;;;;;;;19.25;4.60;;;10.80;99.90;;;;;;5138019;27;20039;-63
2024/02/03 09:54:20;;;;;;;18.13;4.35;;;10.80;99.90;;;;;;5143873;27;20483;-61
2024/02/03 09:56:46;;;;;;;21.25;4.22;;;10.90;99.90;;;;;;5143459;27;20040;-63
2024/02/03 09:59:14;;;;;;;16.65;4.53;;;10.90;99.90;;;;;;5142422;27;20030;-61
2024/02/03 10:01:45;;;;;;;24.63;4.85;;;10.90;99.90;;;;;;5141790;27;20038;-62
2024/02/03 10:04:14;;;;;;;18.10;4.22;;;11.00;99.90;;;;;;5142286;27;20541;-62
2024/02/03 10:06:44;;;;;;;19.52;4.45;;;10.90;99.90;;;;;;5142317;27;20062;-62
2024/02/03 10:09:23;;;;;;;20.15;4.30;;;11.00;99.90;;;;;;5141972;27;20078;-62
2024/02/03 10:11:49;;;;;;;19.05;4.15;;;11.10;99.90;;;;;;5143481;27;20154;-62
2024/02/03 10:14:18;;;;;;;21.08;3.85;;;11.00;99.90;;;;;;5142403;27;20078;-62
2024/02/03 10:16:50;;;;;;;18.90;5.18;;;11.10;99.90;;;;;;5143092;27;20430;-62
2024/02/03 10:19:20;;;;;;;22.38;4.63;;;11.20;99.90;;;;;;5144185;27;20506;-63
2024/02/03 10:21:46;;;;;;;15.68;3.40;;;11.10;99.90;;;;;;5141411;27;20043;-62
2024/02/03 10:24:19;;;;;;;18.38;4.20;;;11.10;99.90;;;;;;5142769;27;20098;-62
2024/02/03 10:26:44;;;;;;;14.32;4.00;;;11.20;99.90;;;;;;5139823;27;20117;-63
2024/02/03 10:29:16;;;;;;;17.80;4.65;;;11.20;99.90;;;;;;5142114;27;20042;-62
2024/02/03 10:31:48;;;;;;;17.45;4.53;;;11.20;99.90;;;;;;5142385;27;20078;-62
2024/02/03 10:34:14;;;;;;;13.95;4.00;;;11.40;99.90;;;;;;5141492;27;20027;-63
2024/02/03 10:36:41;;;;;;;16.83;4.38;;;11.50;99.90;;;;;;5140724;27;20073;-62
2024/02/03 10:39:07;;;;;;;17.33;4.25;;;11.60;99.90;;;;;;5141535;27;20038;-63
2024/02/03 10:41:38;;;;;;;17.35;4.38;;;11.70;99.90;;;;;;5137207;27;20134;-63
2024/02/03 10:44:09;;;;;;;17.25;4.68;;;11.70;99.90;;;;;;5139835;27;20135;-63
2024/02/03 10:46:39;;;;;;;19.33;4.63;;;11.90;99.90;;;;;;5140718;27;20106;-62
2024/02/03 10:49:13;;;;;;;22.27;3.80;;;12.00;99.90;;;;;;5140535;27;20046;-63
2024/02/03 10:51:40;;;;;;;14.60;3.55;;;12.10;99.90;;;;;;5142421;27;20034;-63
2024/02/03 10:54:17;;;;;;;14.63;3.33;;;12.10;99.90;;;;;;5135356;27;20371;-63
2024/02/03 10:56:48;;;;;;;14.57;3.30;;;12.20;99.90;;;;;;5122810;27;20047;-63
2024/02/03 10:59:23;;;;;;;13.60;3.45;;;12.30;99.90;;;;;;5139438;27;20752;-63
2024/02/03 11:01:49;;;;;;;12.25;3.55;;;12.20;99.90;;;;;;5122556;27;20030;-63
2024/02/03 11:04:15;;;;;;;18.75;3.28;;;12.20;99.90;;;;;;5141233;27;20030;-62
2024/02/03 11:06:44;;;;;;;17.50;3.95;;;12.30;99.90;;;;;;5139879;27;20045;-63
2024/02/03 11:09:20;;;;;;;10.50;3.15;;;12.30;99.90;;;;;;5135012;27;20046;-63
2024/02/03 11:11:54;;;;;;;12.38;3.15;;;12.20;99.90;;;;;;5140278;27;20084;-63
2024/02/03 11:14:22;;;;;;;12.82;3.65;;;12.20;99.90;;;;;;5120261;27;20031;-63
2024/02/03 11:16:58;;;;;;;12.52;3.25;;;12.20;99.90;;;;;;5139713;27;20091;-63
2024/02/03 11:19:44;;;;;;;18.05;3.63;;;12.20;99.90;;;;;;5141529;27;20077;-62
2024/02/03 11:22:10;;;;;;;14.88;3.72;;;12.20;99.90;;;;;;5132157;27;20413;-62
2024/02/03 11:24:36;;;;;;;14.23;3.22;;;12.30;99.90;;;;;;5137024;27;20034;-62
2024/02/03 11:27:07;;;;;;;9.73;3.90;;;12.30;99.90;;;;;;5134524;27;20044;-61
2024/02/03 11:29:34;;;;;;;12.73;3.10;;;12.40;99.90;;;;;;5138322;27;20037;-62
2024/02/03 11:32:04;;;;;;;11.38;3.20;;;12.50;99.90;;;;;;5139866;27;20050;-61
2024/02/03 11:34:35;;;;;;;18.23;3.47;;;12.70;99.90;;;;;;5138223;27;20041;-63
2024/02/03 11:37:02;;;;;;;7.95;2.60;;;12.80;99.90;;;;;;5138721;27;20035;-62
2024/02/03 11:39:29;;;;;;;8.90;2.65;;;13.00;99.90;;;;;;5142364;27;20398;-63
2024/02/03 11:41:55;;;;;;;12.18;3.03;;;13.00;99.90;;;;;;5141922;27;20042;-62
2024/02/03 11:44:21;;;;;;;10.35;2.90;;;13.10;99.90;;;;;;5142338;27;20196;-62
2024/02/03 11:46:47;;;;;;;8.32;2.70;;;13.10;99.90;;;;;;5136378;27;20094;-62
2024/02/03 11:49:16;;;;;;;8.65;2.38;;;13.10;99.90;;;;;;5139234;27;20495;-62
2024/02/03 11:51:42;;;;;;;;;;;13.00;99.90;;;;;;5141103;27;20038;-64
2024/02/03 11:54:08;;;;;;;9.73;2.47;;;13.00;99.90;;;;;;5141878;27;19925;-63
2024/02/03 11:56:34;;;;;;;13.30;2.53;;;13.00;99.90;;;;;;5140065;27;20655;-62
2024/02/03 11:59:00;;;;;;;11.80;3.00;;;13.00;99.90;;;;;;5140503;27;20083;-63
2024/02/03 12:01:27;;;;;;;10.23;2.70;;;12.90;99.90;;;;;;5141018;27;20806;-62
2024/02/03 12:03:54;;;;;;;14.07;2.85;;;12.90;99.90;;;;;;5140313;27;20466;-62
2024/02/03 12:06:21;;;;;;;9.95;2.55;;;12.90;99.90;;;;;;5140636;27;20035;-63
2024/02/03 12:08:47;;;;;;;13.13;2.97;;;13.10;99.90;;;;;;5137959;27;20643;-62
2024/02/03 12:11:14;;;;;;;9.70;2.42;;;13.00;99.90;;;;;;5137434;27;20102;-62
2024/02/03 12:13:41;;;;;;;10.25;2.47;;;13.00;99.90;;;;;;5139173;27;20407;-62
2024/02/03 12:16:08;;;;;;;10.20;2.88;;;12.90;99.90;;;;;;5138596;27;20502;-63
2024/02/03 12:18:38;;;;;;;9.30;2.40;;;12.70;99.90;;;;;;5140718;27;20121;-63
2024/02/03 12:21:06;;;;;;;7.90;2.72;;;12.60;99.90;;;;;;5138056;27;20659;-62
2024/02/03 12:23:32;;;;;;;13.77;3.17;;;12.60;99.90;;;;;;5139135;27;20047;-62
2024/02/03 12:25:58;;;;;;;9.65;2.92;;;12.60;99.90;;;;;;5140719;27;20033;-62
2024/02/03 12:28:24;;;;;;;6.93;2.38;;;12.50;99.90;;;;;;5139197;27;20122;-62
2024/02/03 12:30:56;;;;;;;8.13;2.30;;;12.60;99.90;;;;;;5140076;27;20121;-62
2024/02/03 12:33:22;;;;;;;8.90;2.70;;;12.70;99.90;;;;;;5138820;27;20039;-62